Time;durP1;ratioP1;P1;durP2;ratioP2;P2;SDS_P1;SDS_P2;PMS_P1;PMS_P2;Temp;Humidity;BMP_temperature;BMP_pressure;BME280_temperature;BME280_humidity;BME280_pressure;Samples;Min_cycle;Max_cycle;Signal;HPM_P1;HPM_P2
2023/10/29 00:01:51;;;;;;;3.10;2.80;;;;;;;12.57;100.00;99004.03;5096044;28;20015;-63
2023/10/29 00:04:16;;;;;;;2.08;1.88;;;;;;;12.59;100.00;99001.19;5112901;28;20416;-63
2023/10/29 00:06:42;;;;;;;3.20;2.70;;;;;;;12.55;100.00;98998.00;5112296;28;20030;-63
2023/10/29 00:09:07;;;;;;;4.63;2.58;;;;;;;12.57;100.00;98997.88;5112808;28;20438;-63
2023/10/29 00:11:33;;;;;;;2.28;1.92;;;;;;;12.62;100.00;98985.75;5095240;28;20027;-63
2023/10/29 00:13:59;;;;;;;2.00;1.90;;;;;;;12.62;100.00;98985.75;5113871;28;20024;-63
2023/10/29 00:16:25;;;;;;;4.13;2.58;;;;;;;12.64;100.00;98980.22;5093689;28;20385;-63
2023/10/29 00:18:50;;;;;;;4.07;2.60;;;;;;;12.63;100.00;98968.72;5094385;28;20027;-64
2023/10/29 00:21:16;;;;;;;2.17;1.90;;;;;;;12.65;100.00;98950.75;5112332;28;20027;-63
2023/10/29 00:23:44;;;;;;;3.03;2.00;;;;;;;12.64;100.00;98942.91;5111252;28;20384;-63
2023/10/29 00:26:12;;;;;;;3.00;1.98;;;;;;;12.63;100.00;98922.56;5112819;28;20024;-63
2023/10/29 00:28:37;;;;;;;4.60;1.92;;;;;;;12.62;100.00;98926.22;5094047;28;20728;-63
2023/10/29 00:31:03;;;;;;;4.97;2.42;;;;;;;12.56;100.00;98902.84;5092338;28;20031;-63
2023/10/29 00:33:28;;;;;;;3.67;2.40;;;;;;;12.58;100.00;98911.53;5113411;27;20024;-64
2023/10/29 00:35:54;;;;;;;4.07;2.53;;;;;;;12.58;100.00;98900.84;5112466;28;20063;-63
2023/10/29 00:38:19;;;;;;;2.42;2.20;;;;;;;12.62;100.00;98895.06;5112641;28;20520;-63
2023/10/29 00:40:45;;;;;;;1.80;1.70;;;;;;;12.56;100.00;98929.50;5112865;28;20106;-64
2023/10/29 00:43:14;;;;;;;2.60;1.80;;;;;;;12.66;100.00;98962.25;5093538;28;20051;-63
2023/10/29 00:45:40;;;;;;;3.63;2.60;;;;;;;12.65;100.00;98932.09;5093643;28;20058;-63
2023/10/29 00:48:07;;;;;;;3.50;2.60;;;;;;;12.72;100.00;98934.94;5110187;28;20031;-64
2023/10/29 00:50:33;;;;;;;3.92;2.40;;;;;;;12.83;100.00;98932.03;5095448;28;20084;-63
2023/10/29 00:52:59;;;;;;;5.53;2.60;;;;;;;12.85;100.00;98946.03;5092998;28;20418;-63
2023/10/29 00:55:25;;;;;;;4.85;2.80;;;;;;;12.87;100.00;98941.38;5112595;28;20740;-63
2023/10/29 00:57:50;;;;;;;3.35;2.53;;;;;;;12.89;100.00;98915.38;5109550;28;20019;-62
2023/10/29 01:00:21;;;;;;;1.90;1.80;;;;;;;12.96;100.00;98919.06;5112225;28;20047;-62
2023/10/29 01:02:48;;;;;;;3.80;2.42;;;;;;;12.98;100.00;98900.25;5094864;28;20023;-62
2023/10/29 01:05:14;;;;;;;3.20;2.78;;;;;;;13.04;100.00;98902.25;5111965;28;20024;-62
2023/10/29 01:07:39;;;;;;;3.45;2.63;;;;;;;13.09;100.00;98907.13;5113034;27;20100;-62
2023/10/29 01:10:06;;;;;;;3.08;2.20;;;;;;;13.11;100.00;98907.78;5109997;28;20050;-63
2023/10/29 01:12:32;;;;;;;3.28;2.88;;;;;;;13.09;100.00;98888.44;5112883;28;20028;-63
2023/10/29 01:14:57;;;;;;;5.90;2.30;;;;;;;13.11;100.00;98892.59;5111067;28;20069;-62
2023/10/29 01:17:23;;;;;;;3.50;1.88;;;;;;;13.08;100.00;98889.44;5111243;28;20023;-63
2023/10/29 01:19:50;;;;;;;5.70;3.03;;;;;;;12.95;100.00;98868.53;5089480;28;20052;-62
2023/10/29 01:22:16;;;;;;;4.60;2.42;;;;;;;12.93;100.00;98873.19;5111770;28;20034;-62
2023/10/29 01:24:42;;;;;;;3.78;2.63;;;;;;;12.99;100.00;98874.38;5091904;28;20038;-62
2023/10/29 01:27:07;;;;;;;7.40;2.85;;;;;;;13.02;100.00;98904.25;5093733;28;20027;-62
2023/10/29 01:29:33;;;;;;;4.88;2.60;;;;;;;12.96;100.00;98900.38;5108152;28;20474;-62
2023/10/29 01:31:58;;;;;;;6.47;1.85;;;;;;;13.04;100.00;98888.09;5093149;28;20452;-63
2023/10/29 01:34:24;;;;;;;3.38;1.92;;;;;;;13.02;100.00;98880.22;5092407;28;20028;-62
2023/10/29 01:36:50;;;;;;;5.75;2.20;;;;;;;12.98;100.00;98870.88;5111072;28;20510;-62
2023/10/29 01:39:15;;;;;;;2.80;2.53;;;;;;;13.02;100.00;98868.72;5111906;28;20028;-62
2023/10/29 01:41:41;;;;;;;3.95;2.50;;;;;;;12.99;100.00;98874.38;5112816;27;20023;-62
2023/10/29 01:44:06;;;;;;;4.65;2.25;;;;;;;12.98;100.00;98859.38;5111750;28;20027;-62
2023/10/29 01:46:32;;;;;;;2.97;2.72;;;;;;;12.92;100.00;98848.34;5111615;28;20020;-63
2023/10/29 01:48:57;;;;;;;3.63;2.50;;;;;;;12.91;100.00;98854.69;5111751;28;20023;-62
2023/10/29 01:51:22;;;;;;;3.47;3.17;;;;;;;12.85;100.00;98854.47;5111033;28;20020;-63
2023/10/29 01:53:48;;;;;;;2.42;1.90;;;;;;;12.88;100.00;98856.81;5111851;28;20076;-63
2023/10/29 01:56:13;;;;;;;2.88;2.58;;;;;;;12.84;100.00;98855.47;5111764;28;20023;-62
2023/10/29 01:58:39;;;;;;;1.70;1.60;;;;;;;12.83;100.00;98859.16;5112282;28;20035;-63
2023/10/29 02:01:11;;;;;;;4.13;1.95;;;;;;;12.81;100.00;98872.63;5111233;28;20126;-63
2023/10/29 02:03:39;;;;;;;3.00;2.13;;;;;;;12.71;100.00;98878.09;5110037;28;20035;-63
2023/10/29 02:06:13;;;;;;;2.80;2.50;;;;;;;12.72;100.00;98866.44;5109622;28;20046;-63
2023/10/29 02:08:39;;;;;;;5.70;2.83;;;;;;;12.78;100.00;98880.97;5109167;28;20031;-63
2023/10/29 02:11:04;;;;;;;2.75;2.47;;;;;;;12.80;100.00;98878.16;5109543;28;20020;-63
2023/10/29 02:13:30;;;;;;;5.93;2.60;;;;;;;12.84;100.00;98876.81;5111755;28;20562;-63
2023/10/29 02:15:55;;;;;;;4.80;2.40;;;;;;;12.75;100.00;98861.78;5109030;27;20032;-63
2023/10/29 02:18:20;;;;;;;5.22;2.90;;;;;;;12.79;100.00;98873.78;5110725;28;20055;-63
2023/10/29 02:20:46;;;;;;;3.80;3.28;;;;;;;12.78;100.00;98859.63;5108946;28;20157;-63
2023/10/29 02:23:14;;;;;;;1.80;1.70;;;;;;;12.80;100.00;98876.31;5108819;28;20027;-64
2023/10/29 02:25:39;;;;;;;2.42;1.90;;;;;;;12.82;100.00;98871.63;5110228;28;20028;-62
2023/10/29 02:28:04;;;;;;;4.40;2.65;;;;;;;12.77;100.00;98865.13;5091818;28;20394;-64
2023/10/29 02:30:30;;;;;;;2.55;2.30;;;;;;;12.81;100.00;98866.47;5109137;28;20016;-63
2023/10/29 02:32:55;;;;;;;5.05;2.60;;;;;;;12.82;100.00;98868.13;5092068;28;20418;-63
2023/10/29 02:35:21;;;;;;;2.28;1.90;;;;;;;12.89;100.00;98882.53;5090856;28;20386;-63
2023/10/29 02:37:46;;;;;;;4.68;2.38;;;;;;;12.78;100.00;98867.63;5110950;28;20438;-62
2023/10/29 02:40:12;;;;;;;2.70;2.50;;;;;;;12.85;100.00;98867.81;5094246;28;20028;-63
2023/10/29 02:42:38;;;;;;;3.75;2.38;;;;;;;12.88;100.00;98859.50;5110851;28;20022;-64
2023/10/29 02:45:04;;;;;;;2.20;1.90;;;;;;;12.91;100.00;98867.16;5110942;28;20102;-63
2023/10/29 02:47:29;;;;;;;2.63;2.25;;;;;;;12.95;100.00;98848.03;5111068;28;20035;-63
2023/10/29 02:49:55;;;;;;;4.40;2.72;;;;;;;12.94;100.00;98851.69;5111121;28;20024;-63
2023/10/29 02:52:20;;;;;;;1.90;1.80;;;;;;;13.08;100.00;98860.06;5110610;28;20517;-63
2023/10/29 02:54:46;;;;;;;1.70;1.60;;;;;;;13.05;100.00;98865.72;5110145;28;20106;-63
2023/10/29 02:57:13;;;;;;;2.65;2.45;;;;;;;13.07;100.00;98875.25;5090183;28;20043;-63
2023/10/29 02:59:39;;;;;;;2.00;1.60;;;;;;;13.12;100.00;98866.78;5109991;28;20040;-64
2023/10/29 03:02:05;;;;;;;3.65;2.70;;;;;;;13.07;100.00;98858.41;5109001;28;20077;-63
2023/10/29 03:04:33;;;;;;;3.58;2.58;;;;;;;13.05;100.00;98853.22;5109092;28;20373;-63
2023/10/29 03:06:58;;;;;;;5.70;2.60;;;;;;;13.11;100.00;98862.41;5109731;28;20027;-63
2023/10/29 03:09:24;;;;;;;2.38;2.17;;;;;;;13.19;100.00;98841.91;5110038;28;20024;-63
2023/10/29 03:11:49;;;;;;;2.28;1.98;;;;;;;13.26;100.00;98857.31;5088702;28;20482;-64
2023/10/29 03:14:17;;;;;;;3.33;2.42;;;;;;;13.29;100.00;98844.47;5091756;28;20027;-64
2023/10/29 03:16:43;;;;;;;2.28;2.10;;;;;;;13.33;100.00;98853.84;5109883;28;20497;-63
2023/10/29 03:19:08;;;;;;;3.13;1.73;;;;;;;13.35;100.00;98861.66;5090611;28;20028;-63
2023/10/29 03:21:33;;;;;;;2.58;2.38;;;;;;;13.34;100.00;98854.66;5108984;28;20016;-63
2023/10/29 03:23:59;;;;;;;2.30;2.15;;;;;;;13.36;100.00;98864.19;5110018;28;20030;-63
2023/10/29 03:26:24;;;;;;;4.38;2.42;;;;;;;13.40;100.00;98870.03;5109275;28;20027;-63
2023/10/29 03:28:50;;;;;;;4.53;2.63;;;;;;;13.40;100.00;98872.69;5109306;28;20024;-63
2023/10/29 03:31:16;;;;;;;2.65;2.42;;;;;;;13.34;100.00;98870.69;5091135;28;20023;-64
2023/10/29 03:33:42;;;;;;;2.60;2.38;;;;;;;13.27;100.00;98875.03;5112425;28;20398;-64
2023/10/29 03:36:12;;;;;;;2.72;2.53;;;;;;;13.25;100.00;98890.31;5113066;28;20024;-63
2023/10/29 03:38:38;;;;;;;2.60;2.00;;;;;;;13.28;100.00;98885.53;5113671;28;20031;-63
2023/10/29 03:41:06;;;;;;;2.83;2.63;;;;;;;13.19;100.00;98873.13;5090002;28;20020;-63
2023/10/29 03:43:32;;;;;;;3.47;2.38;;;;;;;13.13;100.00;98881.78;5113207;28;20047;-63
2023/10/29 03:45:59;;;;;;;2.67;2.30;;;;;;;13.09;100.00;98878.59;5095008;28;20030;-63
2023/10/29 03:48:25;;;;;;;3.45;1.65;;;;;;;13.08;100.00;98876.91;5113231;28;20385;-63
2023/10/29 03:50:50;;;;;;;3.40;2.65;;;;;;;12.98;100.00;98870.06;5094728;28;20026;-63
2023/10/29 03:53:16;;;;;;;3.72;1.88;;;;;;;12.97;100.00;98863.88;5112758;28;20058;-63
2023/10/29 03:55:41;;;;;;;3.60;2.72;;;;;;;13.00;100.00;98865.38;5113025;28;20019;-63
2023/10/29 03:58:06;;;;;;;3.13;2.30;;;;;;;12.98;100.00;98872.72;5094618;28;20502;-64
2023/10/29 04:00:32;;;;;;;1.95;1.75;;;;;;;13.01;100.00;98870.56;5112993;28;21098;-63
2023/10/29 04:02:57;;;;;;;3.67;2.55;;;;;;;13.01;100.00;98867.06;5092848;28;20048;-63
2023/10/29 04:05:23;;;;;;;5.43;2.72;;;;;;;13.03;100.00;98867.72;5092300;28;20031;-64
2023/10/29 04:07:48;;;;;;;1.77;1.67;;;;;;;13.09;100.00;98883.94;5112026;28;20086;-63
2023/10/29 04:10:16;;;;;;;2.40;2.20;;;;;;;13.10;100.00;98877.59;5112544;28;20027;-63
2023/10/29 04:12:41;;;;;;;3.85;2.08;;;;;;;13.11;100.00;98857.91;5110007;28;20024;-63
2023/10/29 04:15:07;;;;;;;3.03;2.33;;;;;;;13.17;100.00;98869.78;5111415;28;20076;-63
2023/10/29 04:17:33;;;;;;;2.75;2.55;;;;;;;13.09;100.00;98873.28;5112240;28;20019;-63
2023/10/29 04:19:59;;;;;;;2.53;2.28;;;;;;;13.09;100.00;98886.63;5092737;28;20152;-63
2023/10/29 04:22:24;;;;;;;4.93;2.30;;;;;;;13.14;100.00;98902.13;5094999;28;20027;-63
2023/10/29 04:24:50;;;;;;;3.10;1.92;;;;;;;13.13;100.00;98892.47;5113042;28;20057;-63
2023/10/29 04:27:15;;;;;;;3.40;1.80;;;;;;;13.23;100.00;98903.00;5111747;28;20028;-64
2023/10/29 04:29:41;;;;;;;3.55;2.03;;;;;;;13.19;100.00;98905.16;5112203;28;20015;-64
2023/10/29 04:32:06;;;;;;;2.88;2.35;;;;;;;13.15;100.00;98885.97;5113518;28;20027;-63
2023/10/29 04:34:32;;;;;;;4.65;2.40;;;;;;;13.09;100.00;98878.59;5094965;28;20022;-63
2023/10/29 04:36:57;;;;;;;4.03;2.45;;;;;;;13.12;100.00;98885.47;5094592;28;20387;-63
2023/10/29 04:39:24;;;;;;;5.07;2.85;;;;;;;13.09;100.00;98891.94;5112799;28;20390;-63
2023/10/29 04:41:49;;;;;;;3.58;2.47;;;;;;;13.11;100.00;98897.09;5113025;28;20073;-63
2023/10/29 04:44:15;;;;;;;3.33;2.45;;;;;;;13.11;100.00;98871.25;5112151;28;20032;-63
2023/10/29 04:46:41;;;;;;;2.65;1.77;;;;;;;13.16;100.00;98884.13;5093541;28;20537;-63
2023/10/29 04:49:06;;;;;;;4.50;2.70;;;;;;;13.18;100.00;98898.16;5112313;28;20031;-63
2023/10/29 04:51:32;;;;;;;6.35;2.00;;;;;;;13.23;100.00;98898.47;5111573;28;20161;-63
2023/10/29 04:53:57;;;;;;;5.70;2.75;;;;;;;13.20;100.00;98901.47;5093759;28;20020;-62
2023/10/29 04:56:25;;;;;;;5.65;2.65;;;;;;;13.21;100.00;98897.84;5092895;28;20027;-63
2023/10/29 04:58:50;;;;;;;5.95;2.88;;;;;;;13.19;100.00;98894.47;5110033;28;20035;-62
2023/10/29 05:01:17;;;;;;;3.67;1.98;;;;;;;13.22;100.00;98898.66;5111930;28;20032;-64
2023/10/29 05:03:43;;;;;;;4.10;2.47;;;;;;;13.16;100.00;98886.78;5113087;28;20031;-64
2023/10/29 05:06:20;;;;;;;4.38;1.65;;;;;;;13.19;100.00;98903.31;5109561;28;20063;-64
2023/10/29 05:08:45;;;;;;;5.53;1.83;;;;;;;13.25;100.00;98901.88;5111332;28;20423;-63
2023/10/29 05:11:11;;;;;;;4.45;2.45;;;;;;;13.09;100.00;98912.47;5092652;28;20169;-64
2023/10/29 05:13:39;;;;;;;5.88;2.63;;;;;;;13.04;100.00;98920.13;5092796;28;20077;-64
2023/10/29 05:16:05;;;;;;;6.70;2.67;;;;;;;12.98;100.00;98931.44;5092146;28;20016;-63
2023/10/29 05:18:30;;;;;;;10.32;3.20;;;;;;;12.87;100.00;98949.38;5112466;28;20026;-63
2023/10/29 05:20:56;;;;;;;7.75;2.90;;;;;;;12.81;100.00;98919.81;5111729;28;20394;-62
2023/10/29 05:23:21;;;;;;;7.00;3.00;;;;;;;12.79;100.00;98930.66;5109691;28;20024;-63
2023/10/29 05:25:47;;;;;;;3.33;1.80;;;;;;;13.00;100.00;98946.28;5112278;28;20019;-63
2023/10/29 05:28:12;;;;;;;3.28;1.63;;;;;;;12.76;100.00;98964.81;5093103;28;20569;-63
2023/10/29 05:30:39;;;;;;;6.57;2.53;;;;;;;12.48;100.00;98936.47;5109366;28;20023;-63
2023/10/29 05:33:04;;;;;;;4.00;2.45;;;;;;;12.37;100.00;98938.56;5092489;28;20047;-63
2023/10/29 05:35:30;;;;;;;4.65;2.20;;;;;;;12.22;100.00;98923.09;5091087;28;20047;-63
2023/10/29 05:37:55;;;;;;;5.95;2.38;;;;;;;12.20;100.00;98938.41;5110381;28;20020;-63
2023/10/29 05:40:20;;;;;;;6.85;1.90;;;;;;;12.21;100.00;98931.28;5112029;28;20022;-63
2023/10/29 05:42:46;;;;;;;2.25;1.70;;;;;;;12.29;100.00;98957.97;5110316;28;20531;-63
2023/10/29 05:45:11;;;;;;;3.78;2.28;;;;;;;12.02;100.00;98969.56;5110908;28;20046;-63
2023/10/29 05:47:37;;;;;;;1.65;1.55;;;;;;;12.35;100.00;98969.84;5110597;28;20024;-63
2023/10/29 05:50:05;;;;;;;7.22;2.05;;;;;;;12.10;100.00;98972.31;5111461;28;20019;-63
2023/10/29 05:52:31;;;;;;;5.63;2.60;;;;;;;11.94;100.00;98980.13;5108686;28;20435;-63
2023/10/29 05:54:56;;;;;;;3.85;1.73;;;;;;;12.09;100.00;98985.78;5110889;28;20055;-62
2023/10/29 05:57:22;;;;;;;4.85;1.60;;;;;;;12.05;100.00;98987.91;5109841;28;20022;-63
2023/10/29 05:59:50;;;;;;;1.98;1.80;;;;;;;12.00;100.00;98995.53;5091506;28;20425;-63
2023/10/29 06:02:16;;;;;;;7.72;2.53;;;;;;;11.96;100.00;99013.63;5109800;28;20563;-63
2023/10/29 06:04:41;;;;;;;4.38;2.63;;;;;;;11.94;100.00;99017.44;5109688;28;20020;-63
2023/10/29 06:07:08;;;;;;;3.15;1.70;;;;;;;11.88;100.00;99015.38;5109143;28;20038;-63
2023/10/29 06:09:33;;;;;;;7.70;2.65;;;;;;;11.85;100.00;99013.84;5091593;28;20390;-63
2023/10/29 06:11:59;;;;;;;3.70;1.90;;;;;;;11.89;100.00;99014.41;5110384;28;20024;-63
2023/10/29 06:14:24;;;;;;;6.85;1.92;;;;;;;11.96;100.00;99029.63;5110129;28;20058;-63
2023/10/29 06:16:56;;;;;;;6.80;2.72;;;;;;;11.85;100.00;99044.94;5110345;28;20227;-63
2023/10/29 06:19:24;;;;;;;9.93;2.20;;;;;;;11.90;100.00;99029.41;5109632;28;20479;-63
2023/10/29 06:21:50;;;;;;;9.00;3.00;;;;;;;11.85;100.00;99045.81;5109455;28;20493;-63
2023/10/29 06:24:18;;;;;;;6.05;2.53;;;;;;;11.89;100.00;99054.38;5110246;28;20425;-63
2023/10/29 06:26:43;;;;;;;7.95;2.20;;;;;;;11.88;100.00;99042.84;5090970;28;20427;-63
2023/10/29 06:29:09;;;;;;;4.13;1.98;;;;;;;11.87;100.00;99048.34;5092099;28;20115;-63
2023/10/29 06:31:35;;;;;;;9.27;3.05;;;;;;;11.76;100.00;99065.31;5091651;28;20044;-63
2023/10/29 06:34:01;;;;;;;6.78;2.58;;;;;;;11.78;100.00;99040.22;5075455;28;20486;-63
2023/10/29 06:36:27;;;;;;;8.65;3.63;;;;;;;11.72;100.00;99053.31;5109322;28;20034;-63
2023/10/29 06:38:53;;;;;;;4.22;1.90;;;;;;;11.80;100.00;99061.41;5092507;28;20467;-63
2023/10/29 06:41:19;;;;;;;4.65;1.83;;;;;;;11.81;100.00;99068.38;5092325;28;20084;-63
2023/10/29 06:43:44;;;;;;;9.93;2.53;;;;;;;11.82;100.00;99059.41;5110935;28;20019;-63
2023/10/29 06:46:10;;;;;;;5.68;1.90;;;;;;;11.83;100.00;99077.09;5110611;28;20460;-63
2023/10/29 06:48:41;;;;;;;6.88;3.28;;;;;;;11.83;100.00;99082.41;5113385;28;20027;-64
2023/10/29 06:51:08;;;;;;;5.75;1.88;;;;;;;11.87;100.00;99088.31;5110143;28;20023;-63
2023/10/29 06:53:33;;;;;;;7.35;1.90;;;;;;;11.85;100.00;99096.44;5108413;28;20019;-63
2023/10/29 06:56:03;;;;;;;9.02;2.25;;;;;;;11.79;100.00;99092.53;5090229;28;20035;-63
2023/10/29 06:58:28;;;;;;;9.70;3.75;;;;;;;11.72;100.00;99086.09;5074932;28;20474;-63
2023/10/29 07:00:54;;;;;;;6.65;2.75;;;;;;;11.77;100.00;99101.66;5091622;28;20053;-63
2023/10/29 07:03:20;;;;;;;9.93;2.50;;;;;;;11.78;100.00;99109.47;5110950;28;20028;-63
2023/10/29 07:05:45;;;;;;;9.18;3.63;;;;;;;11.75;100.00;99109.78;5106398;28;20038;-63
2023/10/29 07:08:11;;;;;;;4.25;2.17;;;;;;;11.72;100.00;99103.91;5112184;28;20474;-63
2023/10/29 07:10:39;;;;;;;8.57;2.40;;;;;;;11.67;100.00;99104.34;5112186;28;20046;-64
2023/10/29 07:13:05;;;;;;;10.18;4.05;;;;;;;11.67;100.00;99128.31;5111672;28;20059;-63
2023/10/29 07:15:30;;;;;;;10.52;2.42;;;;;;;11.71;100.00;99124.38;5114803;28;20418;-63
2023/10/29 07:17:58;;;;;;;7.88;2.28;;;;;;;11.73;100.00;99124.22;5096732;28;20450;-63
2023/10/29 07:20:23;;;;;;;18.48;4.82;;;;;;;11.75;100.00;99131.06;5094750;28;20046;-64
2023/10/29 07:22:49;;;;;;;5.93;2.50;;;;;;;11.81;100.00;99127.00;5114807;28;20509;-63
2023/10/29 07:25:14;;;;;;;3.00;2.20;;;;;;;11.81;100.00;99119.84;5093985;28;20085;-63
2023/10/29 07:27:40;;;;;;;11.02;2.53;;;;;;;11.85;100.00;99131.06;5113136;28;20028;-63
2023/10/29 07:30:06;;;;;;;8.73;3.55;;;;;;;11.87;100.00;99150.41;5113884;28;20057;-62
2023/10/29 07:32:33;;;;;;;9.20;3.25;;;;;;;11.93;100.00;99155.16;5095021;28;20031;-63
2023/10/29 07:34:59;;;;;;;10.60;2.50;;;;;;;11.91;100.00;99172.25;5110906;28;20034;-63
2023/10/29 07:37:24;;;;;;;6.63;2.47;;;;;;;11.96;100.00;99165.50;5111884;28;20482;-63
2023/10/29 07:39:50;;;;;;;9.90;3.03;;;;;;;11.98;100.00;99170.69;5112336;28;20026;-63
2023/10/29 07:42:15;;;;;;;10.35;4.38;;;;;;;11.98;100.00;99168.03;5094745;28;20020;-63
2023/10/29 07:44:40;;;;;;;7.25;2.38;;;;;;;12.02;100.00;99167.56;5094289;28;20019;-63
2023/10/29 07:47:08;;;;;;;6.45;2.35;;;;;;;12.05;100.00;99174.44;5111542;28;20598;-63
2023/10/29 07:49:37;;;;;;;10.27;4.72;;;;;;;12.06;100.00;99181.47;5093823;28;20063;-63
2023/10/29 07:52:06;;;;;;;13.43;4.22;;;;;;;12.07;100.00;99174.31;5113099;28;20033;-63
2023/10/29 07:54:32;;;;;;;5.80;2.28;;;;;;;12.09;100.00;99177.66;5112752;28;20023;-63
2023/10/29 07:56:57;;;;;;;5.80;2.45;;;;;;;12.13;100.00;99187.88;5094848;28;20019;-62
2023/10/29 07:59:23;;;;;;;19.85;4.57;;;;;;;12.11;99.39;99176.50;5107813;28;20032;-62
2023/10/29 08:01:49;;;;;;;12.57;3.90;;;;;;;12.18;99.46;99177.63;5105611;28;20528;-63
2023/10/29 08:04:14;;;;;;;5.72;2.50;;;;;;;12.26;98.69;99185.72;5090403;28;20378;-63
2023/10/29 08:06:40;;;;;;;10.65;2.67;;;;;;;12.37;97.65;99179.31;5109560;28;20031;-63
2023/10/29 08:09:05;;;;;;;11.25;4.40;;;;;;;12.31;98.18;99198.59;5112676;28;20390;-63
2023/10/29 08:11:35;;;;;;;8.50;2.50;;;;;;;12.39;97.46;99206.69;5113175;27;20382;-63
2023/10/29 08:14:01;;;;;;;12.10;4.43;;;;;;;12.31;96.21;99193.25;5113084;28;20030;-64
2023/10/29 08:16:27;;;;;;;5.90;2.20;;;;;;;12.43;95.67;99208.06;5112759;28;20020;-63
2023/10/29 08:18:52;;;;;;;9.13;3.47;;;;;;;12.46;96.85;99201.59;5092155;28;20032;-63
2023/10/29 08:21:18;;;;;;;11.40;4.40;;;;;;;12.45;95.89;99211.41;5109381;28;20086;-63
2023/10/29 08:23:45;;;;;;;8.45;4.00;;;;;;;12.48;96.07;99221.78;5112713;28;20077;-63
2023/10/29 08:26:11;;;;;;;7.10;2.50;;;;;;;12.56;95.06;99217.50;5087836;28;20055;-63
2023/10/29 08:28:36;;;;;;;6.60;2.53;;;;;;;12.64;95.64;99230.94;5112921;28;20074;-64
2023/10/29 08:31:02;;;;;;;11.68;3.72;;;;;;;12.68;94.27;99233.19;5092748;28;20028;-63
2023/10/29 08:33:27;;;;;;;9.88;3.45;;;;;;;12.59;93.67;99217.22;5091076;28;20368;-62
2023/10/29 08:35:53;;;;;;;12.60;4.43;;;;;;;12.65;94.24;99222.81;5092781;28;20035;-63
2023/10/29 08:38:19;;;;;;;8.70;2.42;;;;;;;12.73;93.51;99243.38;5112723;28;20064;-63
2023/10/29 08:40:46;;;;;;;3.30;2.08;;;;;;;12.82;93.21;99221.13;5111639;28;20470;-62
2023/10/29 08:43:13;;;;;;;3.60;2.40;;;;;;;12.78;92.44;99230.44;5111277;28;20491;-63
2023/10/29 08:45:38;;;;;;;12.48;4.20;;;;;;;12.70;90.54;99233.00;5110966;28;20068;-64
2023/10/29 08:48:04;;;;;;;10.85;3.90;;;;;;;12.80;89.85;99254.31;5112829;28;20016;-64
2023/10/29 08:50:29;;;;;;;10.13;2.47;;;;;;;12.85;91.29;99268.88;5111603;27;20024;-64
2023/10/29 08:52:56;;;;;;;7.20;2.35;;;;;;;12.90;90.99;99260.41;5093258;28;20024;-63
2023/10/29 08:55:22;;;;;;;10.75;3.90;;;;;;;13.01;88.03;99280.72;5111984;28;20059;-64
2023/10/29 08:57:49;;;;;;;8.18;2.75;;;;;;;13.01;88.56;99288.72;5108393;28;20066;-64
2023/10/29 09:00:15;;;;;;;7.60;3.67;;;;;;;13.05;85.44;99298.09;5090351;28;20101;-63
2023/10/29 09:02:42;;;;;;;10.45;4.20;;;;;;;13.10;84.14;99294.00;5112009;28;20401;-63
2023/10/29 09:05:08;;;;;;;4.63;2.05;;;;;;;13.16;86.98;99297.88;5111607;28;20110;-64
2023/10/29 09:07:34;;;;;;;9.60;3.83;;;;;;;13.22;86.23;99304.44;5108117;28;20114;-63
2023/10/29 09:09:59;;;;;;;11.80;3.95;;;;;;;13.24;86.09;99311.31;5111172;28;20069;-64
2023/10/29 09:12:26;;;;;;;12.27;4.63;;;;;;;13.31;85.35;99314.25;5112306;28;20069;-63
2023/10/29 09:14:51;;;;;;;10.30;4.13;;;;;;;13.24;84.12;99311.31;5109873;28;20019;-63
2023/10/29 09:17:17;;;;;;;8.70;3.40;;;;;;;13.23;84.73;99316.78;5111240;28;20020;-63
2023/10/29 09:19:42;;;;;;;11.82;3.40;;;;;;;13.18;84.25;99325.28;5091208;28;20056;-63
2023/10/29 09:22:07;;;;;;;12.23;4.20;;;;;;;13.09;86.03;99324.34;5111521;28;20076;-63
2023/10/29 09:24:33;;;;;;;13.52;4.10;;;;;;;13.05;86.85;99317.63;5111539;28;20479;-63
2023/10/29 09:26:58;;;;;;;10.95;3.90;;;;;;;13.08;86.11;99308.47;5110834;28;20028;-63
2023/10/29 09:29:24;;;;;;;6.95;2.85;;;;;;;13.14;87.54;99315.88;5091472;28;20031;-64
2023/10/29 09:31:53;;;;;;;11.60;3.65;;;;;;;13.28;88.06;99333.25;5111902;28;20055;-63
2023/10/29 09:34:19;;;;;;;9.02;3.47;;;;;;;13.30;86.19;99323.25;5074576;28;20107;-63
2023/10/29 09:36:44;;;;;;;8.77;2.58;;;;;;;13.51;85.86;99322.94;5098755;28;20118;-63
2023/10/29 09:39:12;;;;;;;5.45;2.42;;;;;;;13.47;84.35;99302.88;5093353;28;20110;-64
2023/10/29 09:41:38;;;;;;;10.25;3.97;;;;;;;13.47;82.20;99326.91;5111381;28;20027;-64
2023/10/29 09:44:08;;;;;;;8.70;3.30;;;;;;;13.47;80.82;99327.78;5091609;28;20062;-64
2023/10/29 09:46:36;;;;;;;7.28;2.78;;;;;;;13.50;81.80;99319.44;5090761;28;20050;-64
2023/10/29 09:49:05;;;;;;;8.65;3.38;;;;;;;13.55;81.78;99317.13;5109884;28;20470;-64
2023/10/29 09:51:33;;;;;;;10.80;4.13;;;;;;;13.57;80.41;99317.00;5111183;28;20382;-63
2023/10/29 09:53:59;;;;;;;5.63;1.83;;;;;;;13.60;80.06;99314.84;5109730;28;20445;-64
2023/10/29 09:56:26;;;;;;;8.88;3.10;;;;;;;13.69;80.58;99317.59;5092905;28;20110;-64
2023/10/29 09:58:52;;;;;;;10.13;3.83;;;;;;;13.70;82.28;99311.25;5111210;28;20097;-64
2023/10/29 10:01:20;;;;;;;11.52;3.75;;;;;;;13.64;80.06;99299.34;5110800;28;20504;-64
2023/10/29 10:03:45;;;;;;;9.65;3.72;;;;;;;13.68;80.99;99300.72;5089874;28;20019;-64
2023/10/29 10:06:13;;;;;;;8.18;3.40;;;;;;;13.62;81.79;99288.81;5109134;28;20038;-64
2023/10/29 10:08:39;;;;;;;9.60;3.20;;;;;;;13.61;81.15;99300.47;5093956;28;20554;-63
2023/10/29 10:11:18;;;;;;;13.00;4.07;;;;;;;13.55;79.99;99294.94;5111045;28;20119;-64
2023/10/29 10:13:43;;;;;;;7.75;3.47;;;;;;;13.50;82.71;99290.06;5092391;28;20186;-64
2023/10/29 10:16:14;;;;;;;9.82;4.10;;;;;;;13.46;82.83;99286.00;5093100;28;20114;-63
2023/10/29 10:18:57;;;;;;;4.30;2.03;;;;;;;13.62;82.57;99293.34;5112310;28;20045;-63
2023/10/29 10:21:40;;;;;;;3.97;2.00;;;;;;;13.59;80.83;99291.81;5092406;28;20069;-64
2023/10/29 10:24:07;;;;;;;8.90;3.60;;;;;;;13.48;81.01;99296.56;5090191;28;20448;-64
2023/10/29 10:26:34;;;;;;;10.75;4.20;;;;;;;13.43;82.46;99288.16;5104772;28;20398;-64
2023/10/29 10:29:05;;;;;;;8.38;3.65;;;;;;;13.42;82.78;99278.47;5093260;28;20486;-64
2023/10/29 10:31:35;;;;;;;12.63;3.95;;;;;;;13.54;80.94;99288.75;5110209;28;20039;-64
2023/10/29 10:34:27;;;;;;;12.18;4.32;;;;;;;13.72;81.64;99301.25;5112301;28;20402;-64
2023/10/29 10:37:02;;;;;;;9.55;3.85;;;;;;;13.76;80.66;99299.94;5106576;28;20184;-64
2023/10/29 10:39:28;;;;;;;12.43;3.42;;;;;;;13.90;80.76;99303.88;5092384;28;20065;-64
2023/10/29 10:41:55;;;;;;;10.23;4.22;;;;;;;13.84;80.25;99316.88;5090061;28;20509;-64
2023/10/29 10:44:22;;;;;;;10.43;4.03;;;;;;;13.83;82.66;99330.41;5108385;28;20363;-63
2023/10/29 10:46:49;;;;;;;10.93;4.00;;;;;;;13.83;81.66;99343.75;5116168;28;20044;-64
2023/10/29 10:49:16;;;;;;;10.32;4.28;;;;;;;13.77;81.01;99337.22;5115026;28;20432;-64
2023/10/29 10:51:42;;;;;;;17.02;3.97;;;;;;;13.73;80.69;99334.97;5113230;28;20070;-64
2023/10/29 10:54:08;;;;;;;9.85;3.42;;;;;;;13.68;81.42;99338.13;5113740;28;20031;-63
2023/10/29 10:56:38;;;;;;;10.75;4.15;;;;;;;13.61;83.56;99343.22;5112714;28;20035;-63
2023/10/29 10:59:05;;;;;;;9.68;3.90;;;;;;;13.56;83.65;99329.50;5097189;28;20020;-64
2023/10/29 11:01:31;;;;;;;10.20;3.63;;;;;;;13.48;83.55;99328.59;5096394;28;20181;-63
2023/10/29 11:03:57;;;;;;;12.57;4.55;;;;;;;13.49;82.87;99324.94;5115478;28;20478;-64
2023/10/29 11:06:25;;;;;;;10.88;4.90;;;;;;;13.42;84.93;99322.03;5095861;28;20470;-64
2023/10/29 11:08:52;;;;;;;8.73;3.40;;;;;;;13.39;83.64;99330.34;5115822;28;20034;-63
2023/10/29 11:11:19;;;;;;;8.73;2.42;;;;;;;13.42;82.95;99318.53;5114744;28;20019;-65
2023/10/29 11:13:44;;;;;;;13.52;4.20;;;;;;;13.28;84.23;99301.19;5114656;28;20359;-64
2023/10/29 11:16:24;;;;;;;12.45;4.07;;;;;;;13.31;84.03;99309.75;5097265;28;20110;-64
2023/10/29 11:18:50;;;;;;;5.95;2.22;;;;;;;13.36;83.73;99296.78;5095467;28;20161;-65
2023/10/29 11:21:32;;;;;;;12.77;4.20;;;;;;;13.32;84.49;99310.56;5115177;28;20094;-64
2023/10/29 11:24:17;;;;;;;8.13;2.15;;;;;;;13.37;84.03;99297.63;5114539;28;20031;-64